createdAt,value
2018-01-11T00:00:36.427Z,8.10
2018-01-11T00:03:02.397Z,8.20
2018-01-11T00:05:28.497Z,8.10
2018-01-11T00:07:54.482Z,8.10
2018-01-11T00:10:21.175Z,8.00
2018-01-11T00:12:47.588Z,8.00
2018-01-11T00:15:13.592Z,8.10
2018-01-11T00:17:39.590Z,8.00
2018-01-11T00:20:06.286Z,8.00
2018-01-11T00:22:32.332Z,7.80
2018-01-11T00:24:58.275Z,8.00
2018-01-11T00:27:24.963Z,8.00
2018-01-11T00:29:50.927Z,7.90
2018-01-11T00:32:17.654Z,7.90
2018-01-11T00:34:43.612Z,7.90
2018-01-11T00:37:09.642Z,7.90
2018-01-11T00:39:35.663Z,7.90
2018-01-11T00:42:02.587Z,7.90
2018-01-11T00:44:29.295Z,7.90
2018-01-11T00:46:55.225Z,7.80
2018-01-11T00:49:21.385Z,7.80
2018-01-11T00:51:47.671Z,7.80
2018-01-11T00:54:13.634Z,7.80
2018-01-11T00:56:39.562Z,7.80
2018-01-11T00:59:05.552Z,7.80
2018-01-11T01:01:32.311Z,7.80
2018-01-11T01:03:59.852Z,7.80
2018-01-11T01:06:26.535Z,7.80
2018-01-11T01:08:52.489Z,7.80
2018-01-11T01:11:18.406Z,7.80
2018-01-11T01:13:44.423Z,7.80
2018-01-11T01:16:10.846Z,7.80
2018-01-11T01:18:36.894Z,7.80
2018-01-11T01:21:02.830Z,7.90
2018-01-11T01:23:29.536Z,7.80
2018-01-11T01:25:55.466Z,7.70
2018-01-11T01:28:21.414Z,7.80
2018-01-11T01:30:48.086Z,7.80
2018-01-11T01:33:14.058Z,7.70
2018-01-11T01:35:40.404Z,7.80
2018-01-11T01:38:07.127Z,7.80
2018-01-11T01:40:33.086Z,7.70
2018-01-11T01:42:59.027Z,7.70
2018-01-11T01:45:25.006Z,7.60
2018-01-11T01:47:51.743Z,7.60
2018-01-11T01:50:17.889Z,7.50
2018-01-11T01:52:43.907Z,7.60
2018-01-11T01:55:09.862Z,7.50
2018-01-11T01:57:35.826Z,7.60
2018-01-11T02:00:01.801Z,7.60
2018-01-11T02:02:27.778Z,7.60
2018-01-11T02:04:54.565Z,7.50
2018-01-11T02:07:20.479Z,7.50
2018-01-11T02:09:46.393Z,7.50
2018-01-11T02:12:12.332Z,7.50
2018-01-11T02:14:38.327Z,7.60
2018-01-11T02:17:04.270Z,7.60
2018-01-11T02:19:30.270Z,7.60
2018-01-11T02:21:56.190Z,7.60
2018-01-11T02:24:22.123Z,7.60
2018-01-11T02:26:48.056Z,7.50
2018-01-11T02:29:14.052Z,7.50
2018-01-11T02:31:40.003Z,7.60
2018-01-11T02:34:05.994Z,7.60
2018-01-11T02:36:32.557Z,7.60
2018-01-11T02:38:58.504Z,7.70
2018-01-11T02:41:24.454Z,7.60
2018-01-11T02:43:50.371Z,7.60
2018-01-11T02:46:17.083Z,7.60
2018-01-11T02:48:43.067Z,7.60
2018-01-11T02:51:09.008Z,7.60
2018-01-11T02:53:35.082Z,7.60
2018-01-11T02:56:01.075Z,7.60
2018-01-11T02:58:27.035Z,7.60
2018-01-11T03:00:52.974Z,7.60
2018-01-11T03:03:18.876Z,7.50
2018-01-11T03:05:44.961Z,7.50
2018-01-11T03:08:10.933Z,7.50
2018-01-11T03:10:36.921Z,7.50
2018-01-11T03:13:03.612Z,7.50
2018-01-11T03:15:29.620Z,7.60
2018-01-11T03:17:55.603Z,7.50
2018-01-11T03:20:22.368Z,7.60
2018-01-11T03:22:48.307Z,7.50
2018-01-11T03:25:14.271Z,7.50
2018-01-11T03:27:40.223Z,7.60
2018-01-11T03:30:06.239Z,7.60
2018-01-11T03:32:32.939Z,7.60
2018-01-11T03:34:58.910Z,7.60
2018-01-11T03:37:24.836Z,7.80
2018-01-11T03:39:50.802Z,7.70
2018-01-11T03:42:16.746Z,7.70
2018-01-11T03:44:43.414Z,7.70
2018-01-11T03:47:09.459Z,7.60
2018-01-11T03:49:35.383Z,7.60
2018-01-11T03:52:01.320Z,7.70
2018-01-11T03:54:27.246Z,7.60
2018-01-11T03:56:54.188Z,7.60
2018-01-11T03:59:20.225Z,7.60
2018-01-11T04:01:46.189Z,7.60
2018-01-11T04:04:12.113Z,7.60
2018-01-11T04:06:38.090Z,7.60
2018-01-11T04:09:04.053Z,7.70
2018-01-11T04:11:30.039Z,7.60
2018-01-11T04:13:56.002Z,7.60
2018-01-11T04:16:21.966Z,7.70
2018-01-11T04:18:47.919Z,7.80
2018-01-11T04:21:13.872Z,7.70
2018-01-11T04:23:39.812Z,7.70
2018-01-11T04:26:05.751Z,7.60
2018-01-11T04:28:31.778Z,7.60
2018-01-11T04:30:57.722Z,7.60
2018-01-11T04:33:24.397Z,7.60
2018-01-11T04:35:50.319Z,7.60
2018-01-11T04:38:16.385Z,7.70
2018-01-11T04:40:42.421Z,7.70
2018-01-11T04:43:08.480Z,7.70
2018-01-11T04:45:34.500Z,7.70
2018-01-11T04:48:00.465Z,7.60
2018-01-11T04:50:26.434Z,7.60
2018-01-11T04:52:52.355Z,7.60
2018-01-11T04:55:18.296Z,7.70
2018-01-11T04:57:44.246Z,7.70
2018-01-11T05:00:10.268Z,7.70
2018-01-11T05:02:36.248Z,7.70
2018-01-11T05:05:02.180Z,7.70
2018-01-11T05:07:28.748Z,7.70
2018-01-11T05:09:54.670Z,7.80
2018-01-11T05:12:20.650Z,7.90
2018-01-11T05:14:46.672Z,7.70
2018-01-11T05:17:12.688Z,7.70
2018-01-11T05:19:38.691Z,7.80
2018-01-11T05:22:04.916Z,7.70
2018-01-11T05:24:31.609Z,7.70
2018-01-11T05:26:57.683Z,7.70
2018-01-11T05:29:23.678Z,7.70
2018-01-11T05:31:50.417Z,7.60
2018-01-11T05:34:16.347Z,7.60
2018-01-11T05:36:43.163Z,7.60
2018-01-11T05:39:09.128Z,7.60
2018-01-11T05:41:35.850Z,7.60
2018-01-11T05:44:02.040Z,7.70
2018-01-11T05:46:27.969Z,7.70
2018-01-11T05:48:53.927Z,7.70
2018-01-11T05:51:20.600Z,7.70
2018-01-11T05:53:46.526Z,7.60
2018-01-11T05:56:12.496Z,7.70
2018-01-11T05:58:38.542Z,7.90
2018-01-11T06:01:05.403Z,7.80
2018-01-11T06:03:31.548Z,7.80
2018-01-11T06:05:57.486Z,7.80
2018-01-11T06:08:23.454Z,7.90
2018-01-11T06:10:50.123Z,7.80
2018-01-11T06:13:16.078Z,7.70
2018-01-11T06:15:42.011Z,7.90
2018-01-11T06:18:08.767Z,7.90
2018-01-11T06:20:35.459Z,8.00
2018-01-11T06:23:01.890Z,7.90
2018-01-11T06:25:27.869Z,7.90
2018-01-11T06:27:53.841Z,8.00
2018-01-11T06:30:20.700Z,7.90
2018-01-11T06:32:47.431Z,7.70
2018-01-11T06:35:13.343Z,7.70
2018-01-11T06:37:40.092Z,7.70
2018-01-11T06:40:06.655Z,7.60
2018-01-11T06:42:33.585Z,7.60
2018-01-11T06:45:00.550Z,7.50
2018-01-11T06:47:27.418Z,7.50
2018-01-11T06:49:53.386Z,7.50
2018-01-11T06:52:19.314Z,7.60
2018-01-11T06:54:46.190Z,7.60
2018-01-11T06:57:12.326Z,7.60
2018-01-11T06:59:38.268Z,7.60
2018-01-11T07:02:05.606Z,7.60
2018-01-11T07:04:31.627Z,7.60
2018-01-11T07:06:57.898Z,7.60
2018-01-11T07:09:24.878Z,7.60
2018-01-11T07:11:50.851Z,7.50
2018-01-11T07:14:17.900Z,7.60
2018-01-11T07:16:43.902Z,7.50
2018-01-11T07:19:09.869Z,7.50
2018-01-11T07:21:36.571Z,7.60
2018-01-11T07:24:02.615Z,7.60
2018-01-11T07:26:29.439Z,7.70
2018-01-11T07:28:55.414Z,7.80
2018-01-11T07:31:21.630Z,7.60
2018-01-11T07:33:48.405Z,7.40
2018-01-11T07:36:14.370Z,7.40
2018-01-11T07:38:41.975Z,7.40
2018-01-11T07:41:07.956Z,7.40
2018-01-11T07:43:33.884Z,7.40
2018-01-11T07:46:01.546Z,7.30
2018-01-11T07:48:28.175Z,7.30
2018-01-11T07:50:54.083Z,7.40
2018-01-11T07:53:20.094Z,7.50
2018-01-11T07:55:46.099Z,7.40
2018-01-11T07:58:13.231Z,7.30
2018-01-11T08:00:39.211Z,7.30
2018-01-11T08:03:06.363Z,7.40
2018-01-11T08:05:33.110Z,7.40
2018-01-11T08:07:59.053Z,7.30
2018-01-11T08:10:24.976Z,7.40
2018-01-11T08:12:51.020Z,7.40
2018-01-11T08:15:17.371Z,7.40
2018-01-11T08:17:43.327Z,7.40
2018-01-11T08:20:10.129Z,7.30
2018-01-11T08:22:36.103Z,7.30
2018-01-11T08:25:02.149Z,7.30
2018-01-11T08:27:28.200Z,7.20
2018-01-11T08:29:54.261Z,7.20
2018-01-11T08:32:20.338Z,7.20
2018-01-11T08:34:46.287Z,7.00
2018-01-11T08:37:12.267Z,7.20
2018-01-11T08:39:38.525Z,7.20
2018-01-11T08:42:04.471Z,7.20
2018-01-11T08:44:30.434Z,7.40
2018-01-11T08:46:56.389Z,7.30
2018-01-11T08:49:22.331Z,7.30
2018-01-11T08:51:49.037Z,7.30
2018-01-11T08:54:15.032Z,7.30
2018-01-11T08:56:41.733Z,7.40
2018-01-11T08:59:08.526Z,7.40
2018-01-11T09:01:35.153Z,7.40
2018-01-11T09:04:01.098Z,7.50
2018-01-11T09:06:27.045Z,7.30
2018-01-11T09:08:53.124Z,7.30
2018-01-11T09:11:19.224Z,7.30
2018-01-11T09:13:45.318Z,7.40
2018-01-11T09:16:12.181Z,7.40
2018-01-11T09:18:38.392Z,7.40
2018-01-11T09:21:04.450Z,7.40
2018-01-11T09:23:30.425Z,7.40
2018-01-11T09:25:56.424Z,7.40
2018-01-11T09:28:22.422Z,7.50
2018-01-11T09:30:50.822Z,7.50
2018-01-11T09:33:19.002Z,7.50
2018-01-11T09:35:44.930Z,7.60
2018-01-11T09:38:13.423Z,7.80
2018-01-11T09:40:40.176Z,7.70
2018-01-11T09:43:07.898Z,7.80
2018-01-11T09:45:34.072Z,7.80
2018-01-11T09:48:05.006Z,7.80
2018-01-11T09:50:30.952Z,7.80
2018-01-11T09:52:57.023Z,8.00
2018-01-11T09:55:23.211Z,7.90
2018-01-11T09:57:49.114Z,8.00
2018-01-11T10:00:15.078Z,7.90
2018-01-11T10:02:41.033Z,7.90
2018-01-11T10:05:08.586Z,7.90
2018-01-11T10:07:35.938Z,7.90
2018-01-11T10:10:02.010Z,8.00
2018-01-11T10:12:28.169Z,8.10
2018-01-11T10:14:54.970Z,7.80
2018-01-11T10:17:21.805Z,7.70
2018-01-11T10:19:47.803Z,7.50
2018-01-11T10:22:13.878Z,7.50
2018-01-11T10:24:39.922Z,7.50
2018-01-11T10:27:05.969Z,7.50
2018-01-11T10:29:32.785Z,7.40
2018-01-11T10:32:03.329Z,7.40
2018-01-11T10:34:31.976Z,7.40
2018-01-11T10:36:58.028Z,7.40
2018-01-11T10:39:24.267Z,7.40
2018-01-11T10:41:50.307Z,7.40
2018-01-11T10:44:16.254Z,7.50
2018-01-11T10:46:42.189Z,7.70
2018-01-11T10:49:08.248Z,7.90
2018-01-11T10:51:34.183Z,7.80
2018-01-11T10:54:00.155Z,7.80
2018-01-11T10:56:26.132Z,7.70
2018-01-11T10:58:52.132Z,7.60
2018-01-11T11:01:24.251Z,7.60
2018-01-11T11:03:50.962Z,7.80
2018-01-11T11:06:16.981Z,8.00
2018-01-11T11:08:43.824Z,8.10
2018-01-11T11:11:10.750Z,8.10
2018-01-11T11:13:36.792Z,8.10
2018-01-11T11:16:02.903Z,8.10
2018-01-11T11:18:28.928Z,8.20
2018-01-11T11:20:55.594Z,8.10
2018-01-11T11:23:21.614Z,8.10
2018-01-11T11:25:47.636Z,8.10
2018-01-11T11:28:13.630Z,8.10
2018-01-11T11:30:39.581Z,8.10
2018-01-11T11:33:05.579Z,8.00
2018-01-11T11:35:31.531Z,8.00
2018-01-11T11:37:57.519Z,8.00
2018-01-11T11:40:24.093Z,8.30
2018-01-11T11:42:50.189Z,8.30
2018-01-11T11:45:16.924Z,8.50
2018-01-11T11:47:42.943Z,8.50
2018-01-11T11:50:09.788Z,8.60
2018-01-11T11:52:37.573Z,8.40
2018-01-11T11:55:03.557Z,8.40
2018-01-11T11:57:30.422Z,8.50
2018-01-11T11:59:57.286Z,8.40
2018-01-11T12:02:23.515Z,8.50
2018-01-11T12:04:49.651Z,8.50
2018-01-11T12:07:15.638Z,8.50
2018-01-11T12:09:42.346Z,8.60
2018-01-11T12:12:09.140Z,8.60
2018-01-11T12:14:35.445Z,8.70
2018-01-11T12:17:02.115Z,8.60
2018-01-11T12:19:28.064Z,8.50
2018-01-11T12:21:54.015Z,8.50
2018-01-11T12:24:20.766Z,8.40
2018-01-11T12:26:47.444Z,8.50
2018-01-11T12:29:13.442Z,8.50
2018-01-11T12:31:39.362Z,8.60
2018-01-11T12:34:05.383Z,8.60
2018-01-11T12:36:31.314Z,8.60
2018-01-11T12:38:57.306Z,8.50
2018-01-11T12:41:23.277Z,8.50
2018-01-11T12:43:49.454Z,8.70
2018-01-11T12:46:16.144Z,8.80
2018-01-11T12:48:42.441Z,8.80
2018-01-11T12:51:09.034Z,8.80
2018-01-11T12:53:35.055Z,8.90
2018-01-11T12:56:01.025Z,8.90
2018-01-11T12:58:27.049Z,9.10
2018-01-11T13:00:53.050Z,9.10
2018-01-11T13:03:19.072Z,9.10
2018-01-11T13:05:45.836Z,9.10
2018-01-11T13:08:11.792Z,9.10
2018-01-11T13:10:37.775Z,9.20
2018-01-11T13:13:03.737Z,9.10
2018-01-11T13:15:29.938Z,9.20
2018-01-11T13:17:56.068Z,9.20
2018-01-11T13:20:21.967Z,9.20
2018-01-11T13:22:47.898Z,9.20
2018-01-11T13:25:13.888Z,9.30
2018-01-11T13:27:39.808Z,9.30
2018-01-11T13:30:05.768Z,9.30
2018-01-11T13:32:31.765Z,9.20
2018-01-11T13:34:57.724Z,9.10
2018-01-11T13:37:23.634Z,9.00
2018-01-11T13:39:49.604Z,9.00
2018-01-11T13:42:15.532Z,8.90
2018-01-11T13:44:42.910Z,8.70
2018-01-11T13:47:09.207Z,8.70
2018-01-11T13:49:35.159Z,8.50
2018-01-11T13:52:01.098Z,8.40
2018-01-11T13:54:31.155Z,8.40
2018-01-11T13:56:57.113Z,8.40
2018-01-11T13:59:24.694Z,8.40
2018-01-11T14:01:50.618Z,8.50
2018-01-11T14:04:16.611Z,8.30
2018-01-11T14:06:43.294Z,8.30
2018-01-11T14:09:09.539Z,8.30
2018-01-11T14:11:35.459Z,8.30
2018-01-11T14:14:01.438Z,8.30
2018-01-11T14:16:27.379Z,8.20
2018-01-11T14:18:53.295Z,8.20
2018-01-11T14:21:19.271Z,8.10
2018-01-11T14:23:46.767Z,8.00
2018-01-11T14:26:12.689Z,8.00
2018-01-11T14:28:38.615Z,8.00
2018-01-11T14:31:05.510Z,8.00
2018-01-11T14:33:31.481Z,8.00
2018-01-11T14:35:58.394Z,7.80
2018-01-11T14:38:24.367Z,8.00
2018-01-11T14:40:50.356Z,8.10
2018-01-11T14:43:16.316Z,8.20
2018-01-11T14:45:42.290Z,8.00
2018-01-11T14:48:08.336Z,7.90
2018-01-11T14:50:34.343Z,7.90
2018-01-11T14:53:00.526Z,7.90
2018-01-11T14:55:26.529Z,7.80
2018-01-11T14:57:52.599Z,7.90
2018-01-11T15:00:18.693Z,7.90
2018-01-11T15:02:46.591Z,7.80
2018-01-11T15:05:12.771Z,7.70
2018-01-11T15:07:38.689Z,7.70
2018-01-11T15:10:04.711Z,7.80
2018-01-11T15:12:32.383Z,7.80
2018-01-11T15:14:58.455Z,7.80
2018-01-11T15:17:24.410Z,7.80
2018-01-11T15:19:50.406Z,7.80
2018-01-11T15:22:16.422Z,7.90
2018-01-11T15:24:42.417Z,8.00
2018-01-11T15:27:09.117Z,8.00
2018-01-11T15:29:35.072Z,7.90
2018-01-11T15:32:01.724Z,7.90
2018-01-11T15:34:27.759Z,7.90
2018-01-11T15:36:53.811Z,7.90
2018-01-11T15:39:19.749Z,7.90
2018-01-11T15:41:46.356Z,7.90
2018-01-11T15:44:12.321Z,8.00
2018-01-11T15:46:38.344Z,7.90
2018-01-11T15:49:04.374Z,7.90
2018-01-11T15:51:31.887Z,7.80
2018-01-11T15:53:58.118Z,7.90
2018-01-11T15:56:24.070Z,7.80
2018-01-11T15:58:50.697Z,7.80
2018-01-11T16:01:16.661Z,7.90
2018-01-11T16:03:42.639Z,7.90
2018-01-11T16:06:08.572Z,7.90
2018-01-11T16:08:34.503Z,7.80
2018-01-11T16:11:00.556Z,7.80
2018-01-11T16:13:29.847Z,7.90
2018-01-11T16:15:55.807Z,8.00
2018-01-11T16:18:21.858Z,8.00
2018-01-11T16:20:47.898Z,8.10
2018-01-11T16:23:13.954Z,8.10
2018-01-11T16:25:39.944Z,8.10
2018-01-11T16:28:05.955Z,8.10
2018-01-11T16:30:31.929Z,8.00
2018-01-11T16:32:58.663Z,8.00
2018-01-11T16:35:25.597Z,7.90
2018-01-11T16:37:51.578Z,7.90
2018-01-11T16:40:17.598Z,7.90
2018-01-11T16:42:43.555Z,8.00
2018-01-11T16:45:09.564Z,7.90
2018-01-11T16:47:36.262Z,7.90
2018-01-11T16:50:02.235Z,7.90
2018-01-11T16:52:28.229Z,8.00
2018-01-11T16:54:54.145Z,7.90
2018-01-11T16:57:20.152Z,7.80
2018-01-11T16:59:46.222Z,7.80
2018-01-11T17:02:12.150Z,7.80
2018-01-11T17:04:38.304Z,7.80
2018-01-11T17:07:04.293Z,7.70
2018-01-11T17:09:30.245Z,7.70
2018-01-11T17:11:56.193Z,7.70
2018-01-11T17:14:22.715Z,7.70
2018-01-11T17:16:49.063Z,7.70
2018-01-11T17:19:15.392Z,7.70
2018-01-11T17:21:41.677Z,7.70
2018-01-11T17:24:09.672Z,7.70
2018-01-11T17:26:35.706Z,7.70
2018-01-11T17:29:05.803Z,7.70
2018-01-11T17:31:31.839Z,7.70
2018-01-11T17:33:58.187Z,7.80
2018-01-11T17:36:24.916Z,7.80
2018-01-11T17:38:50.886Z,7.80
2018-01-11T17:41:17.024Z,7.80
2018-01-11T17:43:43.024Z,7.80
2018-01-11T17:46:09.050Z,7.90
2018-01-11T17:48:35.234Z,7.90
2018-01-11T17:51:01.257Z,8.10
2018-01-11T17:53:27.243Z,8.10
2018-01-11T17:55:54.524Z,8.10
2018-01-11T17:58:20.654Z,8.20
2018-01-11T18:00:46.717Z,8.20
2018-01-11T18:03:16.651Z,8.30
2018-01-11T18:05:44.623Z,8.30
2018-01-11T18:08:11.347Z,8.40
2018-01-11T18:10:38.855Z,8.30
2018-01-11T18:13:07.181Z,8.20
2018-01-11T18:15:34.002Z,8.10
2018-01-11T18:17:59.947Z,8.10
2018-01-11T18:20:26.340Z,8.30
2018-01-11T18:22:52.266Z,8.30
2018-01-11T18:25:18.276Z,8.20
2018-01-11T18:27:44.273Z,8.20
2018-01-11T18:30:11.088Z,8.30
2018-01-11T18:32:37.774Z,8.30
2018-01-11T18:35:03.793Z,8.40
2018-01-11T18:37:29.762Z,8.40
2018-01-11T18:39:56.432Z,8.40
2018-01-11T18:42:23.611Z,8.30
2018-01-11T18:44:49.676Z,8.50
2018-01-11T18:47:15.886Z,8.50
2018-01-11T18:49:41.901Z,8.50
2018-01-11T18:52:08.600Z,8.30
2018-01-11T18:54:34.566Z,8.30
2018-01-11T18:57:00.486Z,8.20
2018-01-11T18:59:26.454Z,8.20
2018-01-11T19:01:52.366Z,8.20
2018-01-11T19:04:19.151Z,8.10
2018-01-11T19:06:45.119Z,8.10
2018-01-11T19:09:11.097Z,8.10
2018-01-11T19:11:37.052Z,8.10
2018-01-11T19:14:02.979Z,8.00
2018-01-11T19:16:28.963Z,8.00
2018-01-11T19:18:55.727Z,8.00
2018-01-11T19:21:21.747Z,7.90
2018-01-11T19:23:47.772Z,8.00
2018-01-11T19:26:13.781Z,8.00
2018-01-11T19:28:39.850Z,8.00
2018-01-11T19:31:05.915Z,8.00
2018-01-11T19:33:32.384Z,8.00
2018-01-11T19:35:58.370Z,8.00
2018-01-11T19:38:24.865Z,8.00
2018-01-11T19:40:50.864Z,7.90
2018-01-11T19:43:17.185Z,8.00
2018-01-11T19:45:43.140Z,8.00
2018-01-11T19:48:09.086Z,8.00
2018-01-11T19:50:35.085Z,7.90
2018-01-11T19:53:01.183Z,8.00
2018-01-11T19:55:28.098Z,8.00
2018-01-11T19:57:55.487Z,8.00
2018-01-11T20:00:21.528Z,7.90
2018-01-11T20:02:47.583Z,8.00
2018-01-11T20:05:13.897Z,8.10
2018-01-11T20:07:39.893Z,8.10
2018-01-11T20:10:05.950Z,8.00
2018-01-11T20:12:31.959Z,8.00
2018-01-11T20:14:58.897Z,8.10
2018-01-11T20:17:24.907Z,7.90
2018-01-11T20:19:50.911Z,7.90
2018-01-11T20:22:16.994Z,7.80
2018-01-11T20:24:43.723Z,7.80
2018-01-11T20:27:10.008Z,7.80
2018-01-11T20:29:35.972Z,7.70
2018-01-11T20:34:33.701Z,7.60
2018-01-11T20:36:59.740Z,7.80
2018-01-11T20:39:25.919Z,7.70
2018-01-11T20:41:55.523Z,7.70
2018-01-11T20:44:26.974Z,7.60
2018-01-11T20:46:54.466Z,7.70
2018-01-11T20:49:20.430Z,7.60
2018-01-11T20:51:46.430Z,7.70
2018-01-11T20:54:12.985Z,7.70
2018-01-11T20:56:38.980Z,7.70
2018-01-11T20:59:04.908Z,7.70
2018-01-11T21:01:31.086Z,7.70
2018-01-11T21:03:57.065Z,7.70
2018-01-11T21:06:23.056Z,7.60
2018-01-11T21:08:49.365Z,7.60
2018-01-11T21:11:16.050Z,7.70
2018-01-11T21:13:42.033Z,7.60
2018-01-11T21:16:08.004Z,7.70
2018-01-11T21:21:04.904Z,7.70
2018-01-11T21:23:31.822Z,7.70
2018-01-11T21:25:58.536Z,7.80
2018-01-11T21:28:24.477Z,7.80
2018-01-11T21:30:50.463Z,7.80
2018-01-11T21:33:16.425Z,7.80
2018-01-11T21:35:42.403Z,7.80
2018-01-11T21:38:08.416Z,7.80
2018-01-11T21:40:34.375Z,7.90
2018-01-11T21:43:00.342Z,8.00
2018-01-11T21:45:26.324Z,8.00
2018-01-11T21:47:52.240Z,7.90
2018-01-11T21:50:18.501Z,7.90
2018-01-11T21:52:45.251Z,7.90
2018-01-11T21:55:11.971Z,7.90
2018-01-11T21:57:38.039Z,7.90
2018-01-11T22:00:04.017Z,7.90
2018-01-11T22:02:29.970Z,7.90
2018-01-11T22:04:55.950Z,7.90
2018-01-11T22:07:21.922Z,8.00
2018-01-11T22:09:47.898Z,7.90
2018-01-11T22:12:13.865Z,7.90
2018-01-11T22:14:40.078Z,7.90
2018-01-11T22:17:06.083Z,7.90
2018-01-11T22:19:32.164Z,7.90
2018-01-11T22:21:58.310Z,7.90
2018-01-11T22:24:24.618Z,7.90
2018-01-11T22:26:50.669Z,7.70
2018-01-11T22:29:17.253Z,7.60
2018-01-11T22:31:43.262Z,7.50
2018-01-11T22:34:09.163Z,7.40
2018-01-11T22:36:35.116Z,7.40
2018-01-11T22:39:01.088Z,7.40
2018-01-11T22:41:27.056Z,7.40
2018-01-11T22:43:52.972Z,7.40
2018-01-11T22:46:19.048Z,7.40
2018-01-11T22:48:45.071Z,7.40
2018-01-11T22:51:11.039Z,7.40
2018-01-11T22:53:37.041Z,7.40
2018-01-11T22:56:03.797Z,7.50
2018-01-11T22:58:29.706Z,7.40
2018-01-11T23:00:55.646Z,7.50
2018-01-11T23:03:21.560Z,7.60
2018-01-11T23:05:47.490Z,7.60
2018-01-11T23:08:13.479Z,7.50
2018-01-11T23:10:40.191Z,7.60
2018-01-11T23:13:06.172Z,7.50
2018-01-11T23:15:32.194Z,7.60
2018-01-11T23:17:58.202Z,7.50
2018-01-11T23:20:24.923Z,7.40
2018-01-11T23:22:51.687Z,7.50
2018-01-11T23:25:17.620Z,7.40
2018-01-11T23:27:43.541Z,7.50
2018-01-11T23:30:09.459Z,7.50
2018-01-11T23:32:35.470Z,7.50
2018-01-11T23:35:01.483Z,7.60
2018-01-11T23:37:28.191Z,7.60
2018-01-11T23:39:54.178Z,7.60
2018-01-11T23:42:20.119Z,7.70
2018-01-11T23:44:46.101Z,7.60
2018-01-11T23:47:12.121Z,7.50
2018-01-11T23:49:38.143Z,7.70
2018-01-11T23:52:04.067Z,7.70
2018-01-11T23:54:30.011Z,7.90
2018-01-11T23:56:55.949Z,7.70
2018-01-11T23:59:21.934Z,7.70
